createdAt,value
2022-11-27T00:00:40.241Z,99043.47
2022-11-27T00:03:43.212Z,99047.72
2022-11-27T00:06:45.465Z,99042.50
2022-11-27T00:09:47.560Z,99043.31
2022-11-27T00:12:50.200Z,99035.41
2022-11-27T00:15:52.375Z,99031.00
2022-11-27T00:18:54.816Z,99038.69
2022-11-27T00:21:56.971Z,99043.78
2022-11-27T00:24:58.954Z,99033.22
2022-11-27T00:28:01.054Z,99032.22
2022-11-27T00:31:06.381Z,99027.78
2022-11-27T00:34:09.166Z,99032.84
2022-11-27T00:37:12.352Z,99028.47
2022-11-27T00:40:14.666Z,99029.31
2022-11-27T00:43:16.796Z,99037.09
2022-11-27T00:46:27.852Z,99037.16
2022-11-27T00:49:30.701Z,99032.88
2022-11-27T00:52:32.865Z,99035.59
2022-11-27T00:55:34.958Z,99033.94
2022-11-27T00:58:37.052Z,99036.63
2022-11-27T01:01:42.510Z,99033.25
2022-11-27T01:04:48.408Z,99036.00
2022-11-27T01:07:50.546Z,99032.69
2022-11-27T01:10:57.406Z,99032.78
2022-11-27T01:14:02.774Z,99039.84
2022-11-27T01:17:04.955Z,99039.13
2022-11-27T01:20:07.847Z,99037.50
2022-11-27T01:23:10.076Z,99040.19
2022-11-27T01:26:13.406Z,99036.81
2022-11-27T01:29:15.653Z,99038.63
2022-11-27T01:32:17.764Z,99032.56
2022-11-27T01:35:19.836Z,99037.81
2022-11-27T01:38:22.475Z,99037.13
2022-11-27T01:41:28.429Z,99030.38
2022-11-27T01:44:33.304Z,99030.50
2022-11-27T01:47:43.115Z,99034.84
2022-11-27T01:50:45.212Z,99033.19
2022-11-27T01:53:48.088Z,99025.50
2022-11-27T01:56:56.439Z,99024.69
2022-11-27T02:00:00.901Z,99031.69
2022-11-27T02:03:03.148Z,99028.28
2022-11-27T02:06:05.338Z,99025.69
2022-11-27T02:09:07.482Z,99023.19
2022-11-27T02:12:27.362Z,99022.41
2022-11-27T02:15:39.986Z,99024.97
2022-11-27T02:18:56.860Z,99025.91
2022-11-27T02:22:04.434Z,99027.69
2022-11-27T02:25:28.544Z,99024.34
2022-11-27T02:28:33.591Z,99028.69
2022-11-27T02:31:59.014Z,99025.28
2022-11-27T02:35:04.435Z,99027.94
2022-11-27T02:38:30.515Z,99027.97
2022-11-27T02:41:40.646Z,99023.69
2022-11-27T02:44:58.870Z,99023.69
2022-11-27T02:48:01.337Z,99022.84
2022-11-27T02:51:06.229Z,99016.00
2022-11-27T02:54:13.870Z,99026.44
2022-11-27T02:57:17.114Z,99019.56
2022-11-27T03:00:19.667Z,99014.44
2022-11-27T03:03:27.161Z,99024.78
2022-11-27T03:06:40.850Z,99017.03
2022-11-27T03:09:46.704Z,99018.84
2022-11-27T03:12:49.563Z,99017.16
2022-11-27T03:16:05.695Z,99018.06
2022-11-27T03:19:18.532Z,99003.44
2022-11-27T03:22:20.872Z,99001.75
2022-11-27T03:25:24.060Z,99003.44
2022-11-27T03:28:29.254Z,98993.09
2022-11-27T03:31:31.773Z,98999.13
2022-11-27T03:34:34.226Z,98990.53
2022-11-27T03:37:36.905Z,98999.19
2022-11-27T03:40:54.223Z,99004.44
2022-11-27T03:44:11.598Z,99001.84
2022-11-27T03:47:22.545Z,99001.88
2022-11-27T03:50:33.679Z,99000.13
2022-11-27T03:54:00.591Z,98996.69
2022-11-27T03:57:18.280Z,98989.78
2022-11-27T04:00:20.761Z,98989.75
2022-11-27T04:03:29.169Z,98991.50
2022-11-27T04:06:31.300Z,98979.44
2022-11-27T04:09:33.438Z,98983.75
2022-11-27T04:12:35.446Z,98982.06
2022-11-27T04:15:37.530Z,98982.03
2022-11-27T04:18:39.569Z,98973.41
2022-11-27T04:21:41.630Z,98979.47
2022-11-27T04:24:43.781Z,98980.31
2022-11-27T04:27:45.829Z,98980.38
2022-11-27T04:30:53.237Z,98979.53
2022-11-27T04:33:55.274Z,98983.88
2022-11-27T04:36:57.689Z,98984.72
2022-11-27T04:39:59.931Z,98989.88
2022-11-27T04:43:02.378Z,98979.53
2022-11-27T04:46:04.542Z,98986.44
2022-11-27T04:49:06.831Z,98989.03
2022-11-27T04:52:09.189Z,98987.25
2022-11-27T04:55:11.260Z,98978.59
2022-11-27T04:58:13.349Z,98976.06
2022-11-27T05:01:16.156Z,98976.97
2022-11-27T05:04:18.238Z,98975.25
2022-11-27T05:07:20.456Z,98967.47
2022-11-27T05:10:23.248Z,98971.81
2022-11-27T05:13:25.265Z,98972.69
2022-11-27T05:16:27.412Z,98973.59
2022-11-27T05:19:31.891Z,98970.19
2022-11-27T05:22:33.941Z,98965.00
2022-11-27T05:25:35.946Z,98977.97
2022-11-27T05:28:38.020Z,98976.31
2022-11-27T05:31:40.946Z,98974.59
2022-11-27T05:34:43.162Z,98969.44
2022-11-27T05:37:45.343Z,98967.72
2022-11-27T05:40:47.686Z,98969.47
2022-11-27T05:43:50.409Z,98964.38
2022-11-27T05:46:52.495Z,98967.84
2022-11-27T05:49:54.623Z,98971.38
2022-11-27T05:52:56.716Z,98963.63
2022-11-27T05:56:07.748Z,98972.25
2022-11-27T05:59:11.002Z,98975.69
2022-11-27T06:02:19.548Z,98970.53
2022-11-27T06:05:24.119Z,98980.03
2022-11-27T06:08:26.236Z,98980.91
2022-11-27T06:11:28.406Z,98989.53
2022-11-27T06:14:31.973Z,98992.97
2022-11-27T06:17:33.971Z,98993.78
2022-11-27T06:20:40.809Z,98996.31
2022-11-27T06:23:46.194Z,98989.38
2022-11-27T06:26:48.281Z,98983.25
2022-11-27T06:29:50.361Z,98990.06
2022-11-27T06:32:52.839Z,98979.69
2022-11-27T06:35:55.760Z,98987.34
2022-11-27T06:38:58.186Z,98991.59
2022-11-27T06:42:00.650Z,98982.97
2022-11-27T06:45:02.703Z,98988.09
2022-11-27T06:48:04.918Z,98986.31
2022-11-27T06:51:08.662Z,98988.03
2022-11-27T06:54:10.697Z,98987.09
2022-11-27T06:57:15.091Z,98988.81
2022-11-27T07:00:18.815Z,98978.44
2022-11-27T07:03:21.383Z,98984.38
2022-11-27T07:06:25.358Z,98987.81
2022-11-27T07:09:27.472Z,98987.78
2022-11-27T07:12:29.535Z,98992.06
2022-11-27T07:15:32.831Z,98985.09
2022-11-27T07:18:41.363Z,98984.97
2022-11-27T07:21:43.426Z,98992.69
2022-11-27T07:24:45.622Z,98980.56
2022-11-27T07:27:47.682Z,98983.03
2022-11-27T07:30:56.775Z,98988.09
2022-11-27T07:33:59.068Z,98975.16
2022-11-27T07:37:01.067Z,98981.16
2022-11-27T07:40:03.663Z,98984.53
2022-11-27T07:43:05.929Z,98979.22
2022-11-27T07:46:13.788Z,98976.50
2022-11-27T07:49:16.043Z,98972.88
2022-11-27T07:52:18.259Z,98978.81
2022-11-27T07:55:20.412Z,98978.78
2022-11-27T07:58:22.446Z,98983.00
2022-11-27T08:01:24.906Z,98968.19
2022-11-27T08:04:27.505Z,98970.69
2022-11-27T08:07:31.130Z,98961.84
2022-11-27T08:10:37.296Z,98969.47
2022-11-27T08:13:39.357Z,98967.56
2022-11-27T08:16:41.659Z,98963.03
2022-11-27T08:19:43.777Z,98962.66
2022-11-27T08:22:46.471Z,98959.00
2022-11-27T08:25:48.501Z,98952.88
2022-11-27T08:28:53.365Z,98957.06
2022-11-27T08:31:55.471Z,98948.38
2022-11-27T08:34:57.635Z,98952.72
2022-11-27T08:37:59.739Z,98946.56
2022-11-27T08:41:04.615Z,98959.19
2022-11-27T08:44:09.268Z,98955.25
2022-11-27T08:47:11.698Z,98947.88
2022-11-27T08:50:13.784Z,98951.88
2022-11-27T08:53:16.798Z,98954.88
2022-11-27T08:56:23.875Z,98942.94
2022-11-27T08:59:25.925Z,98944.88
2022-11-27T09:02:28.027Z,98947.63
2022-11-27T09:05:31.022Z,98946.81
2022-11-27T09:08:33.445Z,98945.06
2022-11-27T09:11:35.916Z,98940.63
2022-11-27T09:14:38.435Z,98938.31
2022-11-27T09:17:40.782Z,98938.28
2022-11-27T09:20:42.971Z,98932.84
2022-11-27T09:23:45.351Z,98932.81
2022-11-27T09:26:47.435Z,98935.50
2022-11-27T09:29:49.972Z,98932.25
2022-11-27T09:32:52.768Z,98930.50
2022-11-27T09:35:55.079Z,98925.84
2022-11-27T09:39:00.441Z,98918.38
2022-11-27T09:42:04.695Z,98903.34
2022-11-27T09:45:13.375Z,98907.72
2022-11-27T09:48:22.553Z,98903.31
2022-11-27T09:51:34.407Z,98908.63
2022-11-27T09:54:58.011Z,98898.13
2022-11-27T09:58:07.582Z,98902.13
2022-11-27T10:01:16.280Z,98883.34
2022-11-27T10:04:21.242Z,98875.94
2022-11-27T10:07:48.208Z,98881.56
2022-11-27T10:10:59.098Z,98864.63
2022-11-27T10:14:13.966Z,98868.88
2022-11-27T10:17:26.301Z,98850.25
2022-11-27T10:20:47.351Z,98858.34
2022-11-27T10:24:03.947Z,98856.13
2022-11-27T10:27:22.766Z,98841.19
2022-11-27T10:30:27.365Z,98848.34
2022-11-27T10:33:42.701Z,98836.16
2022-11-27T10:36:48.851Z,98843.84
2022-11-27T10:39:56.888Z,98840.78
2022-11-27T10:43:19.721Z,98833.38
2022-11-27T10:46:29.878Z,98828.84
2022-11-27T10:49:32.659Z,98826.56
2022-11-27T10:52:34.869Z,98821.94
2022-11-27T10:55:58.699Z,98816.59
2022-11-27T10:59:10.482Z,98809.47
2022-11-27T11:02:33.935Z,98810.22
2022-11-27T11:06:18.773Z,98807.59
2022-11-27T11:09:15.161Z,98804.53
2022-11-27T11:12:21.359Z,98806.75
2022-11-27T11:15:23.414Z,98805.41
2022-11-27T11:18:34.627Z,98798.22
2022-11-27T11:21:42.724Z,98791.56
2022-11-27T11:24:53.423Z,98785.59
2022-11-27T11:27:55.826Z,98784.19
2022-11-27T11:31:04.012Z,98787.28
2022-11-27T11:34:27.317Z,98785.59
2022-11-27T11:37:35.315Z,98779.06
2022-11-27T11:40:38.033Z,98789.03
2022-11-27T11:43:40.360Z,98788.00
2022-11-27T11:46:52.275Z,98769.31
2022-11-27T11:49:55.543Z,98764.72
2022-11-27T11:53:15.972Z,98765.78
2022-11-27T11:56:38.967Z,98761.72
2022-11-27T11:59:55.460Z,98748.66
2022-11-27T12:03:24.029Z,98744.00
2022-11-27T12:06:56.786Z,98737.84
2022-11-27T12:10:30.276Z,98742.31
2022-11-27T12:13:35.320Z,98735.22
2022-11-27T12:17:01.279Z,98735.94
2022-11-27T12:20:28.663Z,98727.63
2022-11-27T12:23:40.881Z,98731.91
2022-11-27T12:27:08.823Z,98725.81
2022-11-27T12:30:15.980Z,98725.81
2022-11-27T12:33:39.703Z,98716.66
2022-11-27T12:36:57.045Z,98708.53
2022-11-27T12:40:08.090Z,98714.31
2022-11-27T12:43:24.830Z,98699.06
2022-11-27T12:46:31.684Z,98696.50
2022-11-27T12:49:42.681Z,98705.72
2022-11-27T12:52:52.038Z,98703.72
2022-11-27T12:56:03.794Z,98710.47
2022-11-27T12:59:15.297Z,98711.16
2022-11-27T13:02:29.429Z,98703.44
2022-11-27T13:05:43.833Z,98702.13
2022-11-27T13:09:02.362Z,98704.72
2022-11-27T13:12:05.471Z,98707.44
2022-11-27T13:15:33.606Z,98700.13
2022-11-27T13:18:41.583Z,98702.25
2022-11-27T13:21:46.730Z,98703.81
2022-11-27T13:24:48.997Z,98699.47
2022-11-27T13:27:53.440Z,98692.72
2022-11-27T13:31:00.499Z,98693.06
2022-11-27T13:34:18.633Z,98701.63
2022-11-27T13:37:37.573Z,98689.19
2022-11-27T13:40:46.722Z,98688.66
2022-11-27T13:43:50.523Z,98685.31
2022-11-27T13:46:58.167Z,98693.78
2022-11-27T13:50:08.240Z,98690.53
2022-11-27T13:53:11.506Z,98690.75
2022-11-27T13:56:14.162Z,98687.59
2022-11-27T13:59:22.333Z,98683.56
2022-11-27T14:02:26.160Z,98682.38
2022-11-27T14:05:39.677Z,98677.09
2022-11-27T14:08:50.670Z,98681.25
2022-11-27T14:11:54.124Z,98678.19
2022-11-27T14:15:07.480Z,98678.88
2022-11-27T14:18:22.252Z,98687.88
2022-11-27T14:21:40.570Z,98681.09
2022-11-27T14:24:47.780Z,98678.22
2022-11-27T14:28:04.282Z,98676.38
2022-11-27T14:31:06.693Z,98669.34
2022-11-27T14:34:26.542Z,98665.34
2022-11-27T14:37:29.292Z,98668.25
2022-11-27T14:40:31.948Z,98674.06
2022-11-27T14:43:34.358Z,98667.00
2022-11-27T14:46:37.631Z,98667.03
2022-11-27T14:49:42.357Z,98670.59
2022-11-27T14:52:49.480Z,98665.16
2022-11-27T14:55:55.240Z,98665.88
2022-11-27T14:58:58.506Z,98671.94
2022-11-27T15:02:11.654Z,98658.72
2022-11-27T15:05:29.088Z,98660.44
2022-11-27T15:08:37.029Z,98660.28
2022-11-27T15:11:55.732Z,98670.28
2022-11-27T15:15:03.248Z,98671.50
2022-11-27T15:18:08.908Z,98663.28
2022-11-27T15:21:17.328Z,98668.03
2022-11-27T15:24:30.640Z,98665.88
2022-11-27T15:27:46.122Z,98667.34
2022-11-27T15:30:48.885Z,98668.69
2022-11-27T15:34:06.255Z,98663.72
2022-11-27T15:37:36.295Z,98657.06
2022-11-27T15:40:41.522Z,98657.38
2022-11-27T15:43:45.797Z,98656.81
2022-11-27T15:46:50.484Z,98646.59
2022-11-27T15:49:53.395Z,98654.47
2022-11-27T15:52:56.307Z,98651.25
2022-11-27T15:55:59.146Z,98656.69
2022-11-27T15:59:01.742Z,98647.38
2022-11-27T16:02:04.565Z,98643.34
2022-11-27T16:05:08.920Z,98642.66
2022-11-27T16:08:12.217Z,98635.13
2022-11-27T16:11:19.651Z,98643.16
2022-11-27T16:14:22.226Z,98633.81
2022-11-27T16:17:24.637Z,98643.44
2022-11-27T16:20:27.836Z,98630.56
2022-11-27T16:23:30.385Z,98633.28
2022-11-27T16:26:33.002Z,98626.56
2022-11-27T16:29:35.257Z,98618.94
2022-11-27T16:32:39.958Z,98624.38
2022-11-27T16:35:48.158Z,98617.56
2022-11-27T16:38:55.157Z,98622.84
2022-11-27T16:42:01.775Z,98618.69
2022-11-27T16:45:05.121Z,98617.09
2022-11-27T16:48:07.823Z,98612.81
2022-11-27T16:51:24.747Z,98620.66
2022-11-27T16:54:31.047Z,98616.47
2022-11-27T16:57:34.112Z,98611.47
2022-11-27T17:00:37.078Z,98601.22
2022-11-27T17:03:39.905Z,98600.47
2022-11-27T17:06:42.310Z,98597.94
2022-11-27T17:09:44.849Z,98601.56
2022-11-27T17:12:47.436Z,98599.91
2022-11-27T17:15:50.150Z,98603.47
2022-11-27T17:18:53.415Z,98598.34
2022-11-27T17:21:59.430Z,98597.59
2022-11-27T17:25:02.757Z,98589.03
2022-11-27T17:28:05.792Z,98602.09
2022-11-27T17:31:15.692Z,98596.06
2022-11-27T17:34:19.379Z,98588.38
2022-11-27T17:37:21.894Z,98586.69
2022-11-27T17:40:24.681Z,98572.88
2022-11-27T17:43:28.638Z,98578.19
2022-11-27T17:46:32.969Z,98570.47
2022-11-27T17:49:38.816Z,98573.13
2022-11-27T17:52:43.168Z,98567.13
2022-11-27T17:55:46.974Z,98562.00
2022-11-27T17:58:50.163Z,98568.09
2022-11-27T18:01:54.086Z,98559.50
2022-11-27T18:04:57.027Z,98569.84
2022-11-27T18:08:02.140Z,98559.53
2022-11-27T18:11:16.838Z,98563.88
2022-11-27T18:14:19.920Z,98558.75
2022-11-27T18:17:22.934Z,98554.53
2022-11-27T18:20:26.302Z,98553.72
2022-11-27T18:23:30.250Z,98552.03
2022-11-27T18:29:59.180Z,98544.31
2022-11-27T18:33:04.087Z,98538.34
2022-11-27T18:36:09.366Z,98530.59
2022-11-27T18:39:12.709Z,98539.28
2022-11-27T18:42:17.825Z,98541.09
2022-11-27T18:45:33.652Z,98532.50
2022-11-27T18:48:40.039Z,98520.44
2022-11-27T18:51:43.214Z,98526.50
2022-11-27T18:54:46.150Z,98531.69
2022-11-27T18:57:49.255Z,98531.69
2022-11-27T19:00:57.602Z,98540.34
2022-11-27T19:04:02.079Z,98543.75
2022-11-27T19:07:05.372Z,98532.47
2022-11-27T19:10:09.428Z,98540.09
2022-11-27T19:13:12.162Z,98543.50
2022-11-27T19:16:26.932Z,98537.31
2022-11-27T19:22:56.996Z,98533.84
2022-11-27T19:26:11.618Z,98532.16
2022-11-27T19:29:16.648Z,98526.97
2022-11-27T19:32:20.030Z,98526.94
2022-11-27T19:35:25.563Z,98523.53
2022-11-27T19:38:31.831Z,98522.69
2022-11-27T19:41:35.383Z,98518.41
2022-11-27T19:44:39.621Z,98518.50
2022-11-27T19:47:44.525Z,98515.13
2022-11-27T19:50:47.960Z,98512.63
2022-11-27T19:53:51.576Z,98502.28
2022-11-27T19:56:54.894Z,98499.63
2022-11-27T19:59:59.113Z,98497.13
2022-11-27T20:03:03.112Z,98496.25
2022-11-27T20:06:11.540Z,98497.13
2022-11-27T20:09:14.744Z,98486.78
2022-11-27T20:12:21.799Z,98490.22
2022-11-27T20:15:24.757Z,98490.22
2022-11-27T20:18:29.730Z,98492.66
2022-11-27T20:21:34.148Z,98487.31
2022-11-27T20:24:53.014Z,98482.00
2022-11-27T20:28:01.742Z,98480.97
2022-11-27T20:31:05.160Z,98468.75
2022-11-27T20:34:11.940Z,98469.56
2022-11-27T20:37:15.094Z,98465.09
2022-11-27T20:40:21.040Z,98457.19
2022-11-27T20:43:24.556Z,98450.16
2022-11-27T20:46:28.551Z,98444.81
2022-11-27T20:49:34.509Z,98447.25
2022-11-27T20:52:38.191Z,98441.00
2022-11-27T20:55:41.371Z,98439.13
2022-11-27T20:58:46.133Z,98431.16
2022-11-27T21:01:49.926Z,98430.94
2022-11-27T21:04:52.682Z,98426.44
2022-11-27T21:07:58.762Z,98423.69
2022-11-27T21:11:12.456Z,98420.03
2022-11-27T21:14:16.522Z,98408.47
2022-11-27T21:17:20.080Z,98409.16
2022-11-27T21:20:23.643Z,98399.41
2022-11-27T21:23:26.007Z,98399.03
2022-11-27T21:26:28.896Z,98397.91
2022-11-27T21:29:32.175Z,98392.25
2022-11-27T21:32:34.688Z,98391.56
2022-11-27T21:35:40.263Z,98387.69
2022-11-27T21:38:43.185Z,98380.59
2022-11-27T21:41:45.451Z,98381.31
2022-11-27T21:44:48.313Z,98375.84
2022-11-27T21:47:50.435Z,98371.41
2022-11-27T21:50:52.472Z,98366.88
2022-11-27T21:53:56.004Z,98367.47
2022-11-27T21:56:58.109Z,98363.75
2022-11-27T22:00:00.209Z,98358.44
2022-11-27T22:03:02.488Z,98352.16
2022-11-27T22:06:07.912Z,98352.81
2022-11-27T22:09:14.989Z,98350.91
2022-11-27T22:12:17.707Z,98350.81
2022-11-27T22:15:19.830Z,98348.91
2022-11-27T22:18:22.123Z,98331.53
2022-11-27T22:21:25.036Z,98334.91
2022-11-27T22:24:27.682Z,98330.50
2022-11-27T22:27:29.866Z,98332.22
2022-11-27T22:30:32.316Z,98329.44
2022-11-27T22:33:37.186Z,98324.25
2022-11-27T22:36:39.278Z,98327.63
2022-11-27T22:39:44.218Z,98333.53
2022-11-27T22:42:46.385Z,98334.41
2022-11-27T22:45:48.861Z,98329.22
2022-11-27T22:48:58.551Z,98324.81
2022-11-27T22:52:00.636Z,98319.63
2022-11-27T22:55:03.901Z,98330.81
2022-11-27T22:58:05.982Z,98319.53
2022-11-27T23:01:13.810Z,98317.72
2022-11-27T23:04:16.001Z,98325.47
2022-11-27T23:07:24.790Z,98321.13
2022-11-27T23:10:27.743Z,98316.69
2022-11-27T23:13:29.850Z,98317.50
2022-11-27T23:16:32.019Z,98317.44
2022-11-27T23:19:34.165Z,98316.56
2022-11-27T23:22:37.032Z,98308.69
2022-11-27T23:25:40.166Z,98300.00
2022-11-27T23:28:44.511Z,98301.75
2022-11-27T23:31:46.749Z,98299.91
2022-11-27T23:34:48.929Z,98288.59
2022-11-27T23:37:51.009Z,98285.09
2022-11-27T23:40:53.075Z,98281.59
2022-11-27T23:43:56.265Z,98278.09
2022-11-27T23:46:58.336Z,98267.69
2022-11-27T23:50:00.600Z,98268.47
2022-11-27T23:53:02.701Z,98257.16
2022-11-27T23:56:07.930Z,98255.38
2022-11-27T23:59:10.370Z,98250.94
